Time;durP1;ratioP1;P1;durP2;ratioP2;P2;SDS_P1;SDS_P2;PMS_P1;PMS_P2;Temp;Humidity;BMP_temperature;BMP_pressure;BME280_temperature;BME280_humidity;BME280_pressure;Samples;Min_cycle;Max_cycle;Signal;HPM_P1;HPM_P2
2023/10/08 00:01:50;;;;;;;7.45;2.72;;;;;;;;;;5104697;28;20407;-59
2023/10/08 00:04:20;;;;;;;12.68;2.85;;;;;;;;;;5106902;28;20498;-59
2023/10/08 00:06:52;;;;;;;9.43;2.60;;;;;;;;;;5107021;28;20047;-59
2023/10/08 00:09:20;;;;;;;11.52;3.05;;;;;;;;;;5089408;28;20129;-59
2023/10/08 00:11:52;;;;;;;8.88;2.53;;;;;;;;;;5105853;28;20040;-59
2023/10/08 00:14:21;;;;;;;14.65;2.58;;;;;;;;;;5105234;28;20050;-59
2023/10/08 00:16:49;;;;;;;6.70;2.75;;;;;;;;;;5104794;28;20046;-59
2023/10/08 00:19:17;;;;;;;8.95;2.72;;;;;;;;;;5106881;28;20043;-59
2023/10/08 00:21:45;;;;;;;10.73;2.90;;;;;;;;;;5106054;28;20035;-58
2023/10/08 00:24:14;;;;;;;8.68;2.50;;;;;;;;;;5108632;28;20031;-58
2023/10/08 00:26:41;;;;;;;13.07;2.78;;;;;;;;;;5105557;28;20061;-58
2023/10/08 00:29:21;;;;;;;9.10;2.58;;;;;;;;;;5108508;28;20216;-58
2023/10/08 00:31:49;;;;;;;9.27;2.60;;;;;;;;;;5100863;28;20067;-59
2023/10/08 00:34:19;;;;;;;9.90;2.58;;;;;;;;;;5085855;28;20705;-58
2023/10/08 00:36:47;;;;;;;10.43;2.53;;;;;;;;;;5103475;28;20529;-58
2023/10/08 00:39:16;;;;;;;10.40;2.80;;;;;;;;;;5082286;28;20031;-60
2023/10/08 00:41:44;;;;;;;7.00;2.30;;;;;;;;;;5082826;28;20057;-60
2023/10/08 00:47:05;;;;;;;14.27;2.88;;;;;;;;;;5074952;28;20056;-60
2023/10/08 00:57:29;;;;;;;11.95;2.38;;;;;;;;;;5093790;28;20035;-59
2023/10/08 00:59:58;;;;;;;11.20;2.50;;;;;;;;;;5090176;28;20036;-59
2023/10/08 01:02:44;;;;;;;9.68;2.63;;;;;;;;;;5090571;28;20028;-59
2023/10/08 01:05:13;;;;;;;14.00;2.78;;;;;;;;;;5107044;28;20058;-58
2023/10/08 01:07:44;;;;;;;10.82;2.63;;;;;;;;;;5107822;28;20027;-60
2023/10/08 01:10:13;;;;;;;9.77;2.47;;;;;;;;;;5088949;28;20028;-58
2023/10/08 01:15:32;;;;;;;10.32;2.30;;;;;;;;;;5093032;28;20036;-60
2023/10/08 01:18:01;;;;;;;7.65;2.20;;;;;;;;;;5072037;28;20506;-60
2023/10/08 01:20:34;;;;;;;9.15;2.38;;;;;;;;;;5104001;28;20033;-59
2023/10/08 01:23:13;;;;;;;10.32;2.60;;;;;;;;;;5089234;28;20032;-59
2023/10/08 01:25:41;;;;;;;13.88;2.78;;;;;;;;;;5102628;28;20031;-59
2023/10/08 01:28:14;;;;;;;12.77;2.72;;;;;;;;;;5086808;28;20548;-59
2023/10/08 01:30:42;;;;;;;14.07;2.50;;;;;;;;;;5083267;28;20027;-60
2023/10/08 01:33:12;;;;;;;6.45;2.20;;;;;;;;;;5084196;28;20522;-58
2023/10/08 01:35:40;;;;;;;10.07;2.38;;;;;;;;;;5103259;28;20028;-58
2023/10/08 01:38:07;;;;;;;9.85;2.08;;;;;;;;;;5101342;28;20035;-59
2023/10/08 01:40:33;;;;;;;12.18;3.42;;;;;;;;;;5083122;28;20043;-58
2023/10/08 01:42:59;;;;;;;14.25;3.13;;;;;;;;;;5088771;28;20403;-58
2023/10/08 01:45:26;;;;;;;7.38;2.50;;;;;;;;;;5103704;28;20047;-59
2023/10/08 01:47:54;;;;;;;12.23;2.40;;;;;;;;;;5110934;28;20036;-59
2023/10/08 01:50:21;;;;;;;8.52;2.50;;;;;;;;;;5112227;28;20049;-60
2023/10/08 01:52:48;;;;;;;8.38;2.40;;;;;;;;;;5112163;28;20027;-59
2023/10/08 01:55:18;;;;;;;9.20;2.50;;;;;;;;;;5090501;28;20522;-59
2023/10/08 01:57:48;;;;;;;11.27;2.58;;;;;;;;;;5110476;28;20043;-60
2023/10/08 02:00:19;;;;;;;10.32;2.17;;;;;;;;;;5084030;28;20521;-59
2023/10/08 02:02:47;;;;;;;13.10;2.28;;;;;;;;;;5095472;28;20062;-59
2023/10/08 02:05:15;;;;;;;9.15;2.30;;;;;;;;;;5111534;28;20031;-59
2023/10/08 02:07:44;;;;;;;11.98;2.78;;;;;;;;;;5107211;28;20044;-59
2023/10/08 02:10:10;;;;;;;8.50;2.25;;;;;;;;;;5090100;28;20536;-59
2023/10/08 02:12:41;;;;;;;16.40;2.92;;;;;;;;;;5093818;28;20054;-59
2023/10/08 02:15:08;;;;;;;14.18;2.22;;;;;;;;;;5107807;28;20043;-59
2023/10/08 02:17:34;;;;;;;14.20;2.53;;;;;;;;;;5093274;28;20042;-59
2023/10/08 02:20:04;;;;;;;11.05;2.30;;;;;;;;;;5089726;28;20057;-59
2023/10/08 02:22:32;;;;;;;8.52;2.55;;;;;;;;;;5089997;28;20050;-60
2023/10/08 02:25:01;;;;;;;9.38;2.55;;;;;;;;;;5088603;28;20039;-59
2023/10/08 02:27:28;;;;;;;8.93;2.13;;;;;;;;;;5106591;28;20036;-59
2023/10/08 02:29:54;;;;;;;16.10;3.05;;;;;;;;;;5106084;28;20506;-59
2023/10/08 02:32:24;;;;;;;11.73;2.70;;;;;;;;;;5095904;28;20045;-59
2023/10/08 02:34:52;;;;;;;;;;;;;;;;;;5105979;28;20043;-59
2023/10/08 02:37:19;;;;;;;9.32;2.60;;;;;;;;;;5101863;28;19916;-60
2023/10/08 02:39:45;;;;;;;11.85;2.50;;;;;;;;;;5084532;28;20032;-59
2023/10/08 02:42:14;;;;;;;12.23;2.53;;;;;;;;;;5105415;28;20410;-59
2023/10/08 02:44:43;;;;;;;10.25;2.22;;;;;;;;;;5104425;28;20051;-59
2023/10/08 02:47:20;;;;;;;8.77;2.47;;;;;;;;;;5108814;28;20048;-59
2023/10/08 02:49:51;;;;;;;13.93;2.42;;;;;;;;;;5084481;28;20499;-59
2023/10/08 02:52:18;;;;;;;14.35;2.42;;;;;;;;;;5105764;28;20047;-59
2023/10/08 02:54:44;;;;;;;10.52;2.47;;;;;;;;;;5091200;28;20054;-59
2023/10/08 02:57:14;;;;;;;7.20;2.30;;;;;;;;;;5092880;28;20047;-58
2023/10/08 02:59:40;;;;;;;11.18;2.17;;;;;;;;;;5092626;28;20031;-58
2023/10/08 03:02:18;;;;;;;15.15;3.30;;;;;;;;;;5090645;28;20498;-59
2023/10/08 03:04:46;;;;;;;9.15;2.90;;;;;;;;;;5090568;28;20027;-58
2023/10/08 03:07:21;;;;;;;11.45;3.30;;;;;;;;;;5090540;28;20047;-58
2023/10/08 03:10:03;;;;;;;9.77;3.10;;;;;;;;;;5092453;28;20027;-58
2023/10/08 03:12:33;;;;;;;12.07;3.63;;;;;;;;;;5089197;28;20763;-59
2023/10/08 03:15:28;;;;;;;12.52;3.17;;;;;;;;;;5106379;28;20036;-59
2023/10/08 03:17:48;;;;;;;;;;;;;;;;;;5087390;28;20036;-59
2023/10/08 03:23:07;;;;;;;12.68;3.58;;;;;;;;;;5087602;28;20059;-59
2023/10/08 03:25:41;;;;;;;12.60;2.60;;;;;;;;;;5107566;28;20051;-58
2023/10/08 03:28:13;;;;;;;13.95;2.90;;;;;;;;;;5107204;28;20059;-60
2023/10/08 03:30:50;;;;;;;10.65;3.30;;;;;;;;;;5102900;28;20051;-58
2023/10/08 03:33:23;;;;;;;11.93;2.85;;;;;;;;;;5072918;28;20054;-58
2023/10/08 03:35:52;;;;;;;11.23;2.75;;;;;;;;;;5104108;28;20517;-59
2023/10/08 03:38:28;;;;;;;;;;;;;;;;;;5083297;28;20024;-59
2023/10/08 03:41:06;;;;;;;10.73;2.72;;;;;;;;;;5102689;28;19912;-60
2023/10/08 03:43:42;;;;;;;11.90;2.75;;;;;;;;;;5110325;28;20032;-59
2023/10/08 03:46:15;;;;;;;7.40;2.35;;;;;;;;;;5107978;28;20040;-59
2023/10/08 03:48:45;;;;;;;12.68;3.25;;;;;;;;;;5109686;28;20035;-59
2023/10/08 03:51:12;;;;;;;12.10;3.05;;;;;;;;;;5106895;28;20036;-59
2023/10/08 03:53:57;;;;;;;9.40;3.13;;;;;;;;;;5107496;28;20047;-59
2023/10/08 03:56:30;;;;;;;12.23;3.47;;;;;;;;;;5104295;28;20399;-59
2023/10/08 03:59:00;;;;;;;13.68;3.70;;;;;;;;;;5109615;28;20024;-59
2023/10/08 04:01:31;;;;;;;12.55;3.55;;;;;;;;;;5108413;28;20042;-60
2023/10/08 04:03:58;;;;;;;13.52;3.28;;;;;;;;;;5106819;28;20395;-59
2023/10/08 04:11:43;;;;;;;13.55;3.90;;;;;;;;;;5103620;28;20050;-58
2023/10/08 04:14:09;;;;;;;11.77;3.53;;;;;;;;;;5086571;28;20035;-59
2023/10/08 04:16:38;;;;;;;13.90;4.38;;;;;;;;;;5105997;28;20043;-59
2023/10/08 04:19:04;;;;;;;15.65;3.97;;;;;;;;;;5105754;28;20039;-58
2023/10/08 04:21:33;;;;;;;14.48;3.80;;;;;;;;;;5103013;28;20038;-59
2023/10/08 04:24:08;;;;;;;12.95;4.22;;;;;;;;;;5102955;28;20055;-59
2023/10/08 04:26:35;;;;;;;11.25;4.15;;;;;;;;;;5107861;28;20507;-58
2023/10/08 04:29:02;;;;;;;13.95;4.10;;;;;;;;;;5104281;28;20051;-59
2023/10/08 04:31:46;;;;;;;14.02;4.28;;;;;;;;;;5102756;28;20419;-59
2023/10/08 04:34:15;;;;;;;19.00;4.28;;;;;;;;;;5107371;28;20070;-59
2023/10/08 04:36:45;;;;;;;9.10;3.30;;;;;;;;;;5103551;28;20491;-59
2023/10/08 04:39:21;;;;;;;11.52;3.63;;;;;;;;;;5107174;28;20047;-59
2023/10/08 04:41:54;;;;;;;10.40;2.80;;;;;;;;;;5092399;28;20054;-59
2023/10/08 04:44:21;;;;;;;11.63;2.63;;;;;;;;;;5085212;28;20043;-59
2023/10/08 04:46:51;;;;;;;14.23;3.03;;;;;;;;;;5088975;28;20035;-59
2023/10/08 04:49:27;;;;;;;11.02;2.30;;;;;;;;;;5092606;28;20554;-58
2023/10/08 04:51:58;;;;;;;19.50;2.60;;;;;;;;;;5108220;28;20050;-58
2023/10/08 04:54:29;;;;;;;8.73;1.88;;;;;;;;;;5105301;28;20036;-59
2023/10/08 04:57:00;;;;;;;9.02;2.50;;;;;;;;;;5107573;28;20038;-58
2023/10/08 04:59:36;;;;;;;11.27;2.30;;;;;;;;;;5108359;28;20024;-59
2023/10/08 05:12:42;;;;;;;10.80;2.67;;;;;;;;;;5103151;28;20027;-59
2023/10/08 05:20:29;;;;;;;14.80;2.25;;;;;;;;;;5085952;28;20054;-58
2023/10/08 05:23:05;;;;;;;14.95;2.60;;;;;;;;;;5101864;28;20059;-59
2023/10/08 05:25:40;;;;;;;7.35;2.10;;;;;;;;;;5102529;28;20067;-58
2023/10/08 05:28:09;;;;;;;13.90;2.45;;;;;;;;;;5102354;28;20039;-59
2023/10/08 05:30:41;;;;;;;14.23;2.80;;;;;;;;;;5101513;28;20050;-59
2023/10/08 05:39:00;;;;;;;12.57;3.25;;;;;;;;;;5107503;28;20039;-59
2023/10/08 05:41:05;;;;;;;15.52;2.83;;;;;;;;;;5093963;28;20051;-59
2023/10/08 06:13:06;;;;;;;13.45;3.15;;;;;;;;;;5105215;28;20047;-58
2023/10/08 06:15:49;;;;;;;9.82;3.00;;;;;;;;;;5102043;28;20050;-59
2023/10/08 06:18:19;;;;;;;15.48;3.92;;;;;;;;;;5103472;28;20046;-60
2023/10/08 06:20:50;;;;;;;13.18;3.40;;;;;;;;;;5087857;28;20636;-59
2023/10/08 06:23:20;;;;;;;11.32;2.80;;;;;;;;;;5102320;28;20035;-60
2023/10/08 06:25:47;;;;;;;9.80;3.20;;;;;;;;;;5102199;28;20048;-58
2023/10/08 06:28:21;;;;;;;11.65;2.70;;;;;;;;;;5106646;28;20419;-59
2023/10/08 06:30:49;;;;;;;15.23;3.50;;;;;;;;;;5108027;28;20051;-59
2023/10/08 06:33:16;;;;;;;17.02;2.88;;;;;;;;;;5108678;28;20048;-59
2023/10/08 06:35:56;;;;;;;11.55;2.25;;;;;;;;;;5111400;28;20050;-59
2023/10/08 06:38:24;;;;;;;9.20;2.35;;;;;;;;;;5111000;28;20028;-57
2023/10/08 06:40:52;;;;;;;15.60;2.78;;;;;;;;;;5108846;28;20024;-57
2023/10/08 06:43:24;;;;;;;12.80;3.00;;;;;;;;;;5108658;28;20031;-58
2023/10/08 06:45:52;;;;;;;7.28;2.08;;;;;;;;;;5109637;28;20047;-57
2023/10/08 06:48:23;;;;;;;11.00;2.50;;;;;;;;;;5091668;28;20054;-58
2023/10/08 06:50:50;;;;;;;15.93;2.72;;;;;;;;;;5108696;28;20449;-59
2023/10/08 06:53:21;;;;;;;15.55;4.10;;;;;;;;;;5108354;28;20043;-59
2023/10/08 06:55:56;;;;;;;18.88;4.10;;;;;;;;;;5110934;28;20078;-60
2023/10/08 06:58:24;;;;;;;8.68;2.55;;;;;;;;;;5109143;28;20406;-59
2023/10/08 07:00:51;;;;;;;12.98;2.35;;;;;;;;;;5108010;28;20032;-59
2023/10/08 07:03:18;;;;;;;16.80;2.40;;;;;;;;;;5108034;28;20036;-59
2023/10/08 07:05:54;;;;;;;9.57;2.13;;;;;;;;;;5091308;28;20054;-59
2023/10/08 07:08:23;;;;;;;14.07;2.38;;;;;;;;;;5108681;28;20039;-59
2023/10/08 07:10:53;;;;;;;12.93;2.35;;;;;;;;;;5105695;28;20040;-59
2023/10/08 07:13:21;;;;;;;8.50;1.85;;;;;;;;;;5107367;28;20051;-59
2023/10/08 07:15:50;;;;;;;12.77;2.72;;;;;;;;;;5086804;28;20367;-59
2023/10/08 07:18:24;;;;;;;10.25;3.08;;;;;;;;;;5105942;28;20043;-59
2023/10/08 07:20:56;;;;;;;11.35;3.38;;;;;;;;;;5104149;28;20048;-58
2023/10/08 07:23:27;;;;;;;11.70;2.40;;;;;;;;;;5105679;28;20399;-59
2023/10/08 07:26:10;;;;;;;13.80;3.30;;;;;;;;;;5106504;28;20398;-59
2023/10/08 07:28:39;;;;;;;9.13;2.85;;;;;;;;;;5082853;28;20036;-59
2023/10/08 07:31:34;;;;;;;11.82;2.58;;;;;;;;;;5102409;28;20054;-59
2023/10/08 07:34:15;;;;;;;13.60;2.53;;;;;;;;;;5091646;28;20106;-59
2023/10/08 07:36:43;;;;;;;14.65;2.55;;;;;;;;;;5109823;28;20020;-59
2023/10/08 07:39:22;;;;;;;16.65;2.88;;;;;;;;;;5109187;28;20032;-58
2023/10/08 07:41:49;;;;;;;;;;;;;;;;;;5106658;28;20471;-60
2023/10/08 07:44:15;;;;;;;7.80;2.15;;;;;;;;;;5089257;28;19926;-59
2023/10/08 07:46:42;;;;;;;19.08;3.00;;;;;;;;;;5107789;28;20042;-59
2023/10/08 07:49:14;;;;;;;15.13;3.10;;;;;;;;;;5107801;28;20035;-59
2023/10/08 07:51:40;;;;;;;14.40;3.30;;;;;;;;;;5109437;28;20028;-59
2023/10/08 07:54:09;;;;;;;14.25;2.53;;;;;;;;;;5105045;28;20050;-59
2023/10/08 07:56:37;;;;;;;16.63;3.30;;;;;;;;;;5109153;28;20038;-58
2023/10/08 07:59:12;;;;;;;13.68;4.35;;;;;;;;;;5108395;28;20428;-59
2023/10/08 08:01:38;;;;;;;13.13;3.72;;;;;;;;;;5107078;28;20035;-59
2023/10/08 08:04:10;;;;;;;13.23;3.25;;;;;;;;;;5090206;28;20424;-59
2023/10/08 08:06:39;;;;;;;15.68;3.13;;;;;;;;;;5108053;28;20034;-59
2023/10/08 08:09:18;;;;;;;12.45;3.42;;;;;;;;;;5104264;28;20070;-59
2023/10/08 08:11:46;;;;;;;10.00;2.72;;;;;;;;;;5103223;28;20032;-60
2023/10/08 08:14:24;;;;;;;12.43;2.72;;;;;;;;;;5109209;28;20031;-59
2023/10/08 08:16:51;;;;;;;17.20;3.50;;;;;;;;;;5093072;28;20035;-59
2023/10/08 08:19:24;;;;;;;12.70;3.05;;;;;;;;;;5106285;28;20051;-59
2023/10/08 08:21:52;;;;;;;13.00;3.58;;;;;;;;;;5087873;28;20038;-59
2023/10/08 08:24:28;;;;;;;11.60;3.42;;;;;;;;;;5105287;28;20042;-59
2023/10/08 08:27:23;;;;;;;17.13;3.75;;;;;;;;;;5101336;28;20495;-58
2023/10/08 08:29:56;;;;;;;10.85;3.20;;;;;;;;;;5107084;28;20047;-59
2023/10/08 08:32:23;;;;;;;12.85;3.38;;;;;;;;;;5108875;28;20502;-59
2023/10/08 08:34:50;;;;;;;13.25;3.83;;;;;;;;;;5107686;28;20059;-59
2023/10/08 08:37:17;;;;;;;15.02;3.83;;;;;;;;;;5106850;28;20032;-59
2023/10/08 08:39:43;;;;;;;13.25;3.00;;;;;;;;;;5107118;28;20039;-59
2023/10/08 08:42:10;;;;;;;13.90;3.17;;;;;;;;;;5107418;28;20027;-59
2023/10/08 08:44:45;;;;;;;13.98;2.80;;;;;;;;;;5106779;28;20042;-58
2023/10/08 08:47:17;;;;;;;12.27;3.63;;;;;;;;;;5100444;28;20384;-60
2023/10/08 08:49:47;;;;;;;12.68;2.75;;;;;;;;;;5108233;28;20456;-60
2023/10/08 08:52:14;;;;;;;11.27;2.88;;;;;;;;;;5090044;28;20047;-58
2023/10/08 08:54:42;;;;;;;14.38;3.40;;;;;;;;;;5107015;28;20093;-59
2023/10/08 08:57:13;;;;;;;12.93;3.33;;;;;;;;;;5083214;28;20507;-59
2023/10/08 08:59:58;;;;;;;12.43;3.78;;;;;;;;;;5106834;28;20031;-59
2023/10/08 09:02:24;;;;;;;15.35;3.95;;;;;;;;;;5083694;28;20035;-59
2023/10/08 09:04:50;;;;;;;12.23;4.00;;;;;;;;;;5102524;28;20058;-59
2023/10/08 09:07:23;;;;;;;16.05;4.50;;;;;;;;;;5106198;28;20509;-59
2023/10/08 09:09:49;;;;;;;18.38;3.58;;;;;;;;;;5106065;28;20035;-59
2023/10/08 09:12:20;;;;;;;14.32;3.67;;;;;;;;;;5105414;28;20043;-58
2023/10/08 09:14:47;;;;;;;13.20;3.53;;;;;;;;;;5105927;28;20098;-59
2023/10/08 09:17:16;;;;;;;19.00;5.70;;;;;;;;;;5086570;28;20044;-59
2023/10/08 09:19:43;;;;;;;11.27;3.47;;;;;;;;;;5104681;28;20024;-59
2023/10/08 09:22:11;;;;;;;13.80;4.72;;;;;;;;;;5103759;28;20050;-59
2023/10/08 09:24:38;;;;;;;15.70;3.78;;;;;;;;;;5099017;28;20051;-59
2023/10/08 09:27:13;;;;;;;12.13;3.40;;;;;;;;;;5108212;28;20035;-59
2023/10/08 09:29:42;;;;;;;12.25;3.53;;;;;;;;;;5103862;28;20418;-60
2023/10/08 09:32:10;;;;;;;16.83;4.00;;;;;;;;;;5103970;28;20047;-59
2023/10/08 09:34:37;;;;;;;16.52;4.07;;;;;;;;;;5093221;28;20039;-59
2023/10/08 09:37:03;;;;;;;12.25;3.60;;;;;;;;;;5090529;28;20042;-59
2023/10/08 09:39:33;;;;;;;19.48;3.53;;;;;;;;;;5106978;28;20402;-59
2023/10/08 09:42:02;;;;;;;14.75;4.22;;;;;;;;;;5084717;28;20419;-59
2023/10/08 09:44:30;;;;;;;14.18;3.70;;;;;;;;;;5105549;28;20030;-59
2023/10/08 09:47:04;;;;;;;12.32;3.70;;;;;;;;;;5107584;28;20039;-59
2023/10/08 09:49:41;;;;;;;13.80;4.32;;;;;;;;;;5107318;28;20403;-60
2023/10/08 09:52:10;;;;;;;14.07;3.97;;;;;;;;;;5107860;28;20039;-59
2023/10/08 09:55:05;;;;;;;16.38;4.50;;;;;;;;;;5107523;28;20035;-60
2023/10/08 09:57:33;;;;;;;19.15;3.83;;;;;;;;;;5104891;28;20051;-60
2023/10/08 09:59:59;;;;;;;16.25;4.25;;;;;;;;;;5105616;28;20023;-59
2023/10/08 10:02:27;;;;;;;17.40;4.75;;;;;;;;;;5089024;28;20511;-59
2023/10/08 10:04:55;;;;;;;15.25;3.92;;;;;;;;;;5078220;28;20039;-60
2023/10/08 10:07:22;;;;;;;18.45;4.53;;;;;;;;;;5108464;28;20527;-60
2023/10/08 10:09:53;;;;;;;18.60;4.90;;;;;;;;;;5105838;28;20423;-60
2023/10/08 10:12:25;;;;;;;19.35;4.65;;;;;;;;;;5108020;28;20054;-60
2023/10/08 10:14:55;;;;;;;26.40;4.90;;;;;;;;;;5106866;28;20043;-60
2023/10/08 10:17:26;;;;;;;22.58;6.32;;;;;;;;;;5105099;28;20059;-59
2023/10/08 10:19:59;;;;;;;23.15;6.35;;;;;;;;;;5110530;28;20039;-60
2023/10/08 10:22:35;;;;;;;21.88;4.53;;;;;;;;;;5105199;28;20036;-60
2023/10/08 10:25:16;;;;;;;24.27;5.07;;;;;;;;;;5093913;28;20051;-60
2023/10/08 10:28:08;;;;;;;18.33;4.70;;;;;;;;;;5108023;28;20046;-60
2023/10/08 10:30:34;;;;;;;19.15;4.07;;;;;;;;;;5097398;28;20487;-60
2023/10/08 10:33:01;;;;;;;20.85;4.18;;;;;;;;;;5110485;28;20031;-60
2023/10/08 10:35:27;;;;;;;13.45;3.67;;;;;;;;;;5109054;28;20030;-60
2023/10/08 10:38:03;;;;;;;32.22;4.53;;;;;;;;;;5109119;28;20063;-60
2023/10/08 10:40:31;;;;;;;23.48;4.63;;;;;;;;;;5108863;28;20030;-58
2023/10/08 10:43:00;;;;;;;16.52;4.10;;;;;;;;;;5105453;28;20060;-59
2023/10/08 10:45:46;;;;;;;20.38;4.28;;;;;;;;;;5109786;28;20038;-59
2023/10/08 10:53:44;;;;;;;15.90;3.67;;;;;;;;;;5104345;28;20050;-59
2023/10/08 10:56:18;;;;;;;22.42;4.00;;;;;;;;;;5107783;28;20506;-59
2023/10/08 10:58:53;;;;;;;24.63;3.97;;;;;;;;;;5086465;28;20039;-59
2023/10/08 11:01:48;;;;;;;17.77;4.18;;;;;;;;;;5108305;28;20056;-58
2023/10/08 11:04:18;;;;;;;23.52;4.40;;;;;;;;;;5106824;28;20031;-59
2023/10/08 11:06:50;;;;;;;18.67;5.13;;;;;;;;;;5106630;28;20402;-59
2023/10/08 11:09:30;;;;;;;20.88;5.05;;;;;;;;;;5107681;28;20055;-59
2023/10/08 11:11:59;;;;;;;16.10;4.10;;;;;;;;;;5107159;28;20039;-59
2023/10/08 11:14:25;;;;;;;;;;;;;;;;;;5104946;28;20032;-59
2023/10/08 11:16:51;;;;;;;24.20;4.75;;;;;;;;;;5104480;28;19954;-59
2023/10/08 11:19:19;;;;;;;16.70;4.70;;;;;;;;;;5106862;28;20028;-59
2023/10/08 11:21:50;;;;;;;19.35;4.25;;;;;;;;;;5110320;28;20502;-59
2023/10/08 11:24:37;;;;;;;22.63;5.25;;;;;;;;;;5107273;28;20035;-59
2023/10/08 11:27:16;;;;;;;17.75;4.70;;;;;;;;;;5109697;28;20410;-59
2023/10/08 11:29:56;;;;;;;17.77;4.28;;;;;;;;;;5108595;28;20051;-57
2023/10/08 11:32:25;;;;;;;16.45;4.30;;;;;;;;;;5108186;28;20048;-58
2023/10/08 11:35:15;;;;;;;15.13;4.57;;;;;;;;;;5108260;28;20044;-57
2023/10/08 11:37:48;;;;;;;15.02;3.85;;;;;;;;;;5105479;28;20047;-58
2023/10/08 11:40:48;;;;;;;19.35;4.43;;;;;;;;;;5087775;28;20040;-57
2023/10/08 11:43:18;;;;;;;18.48;4.85;;;;;;;;;;5104507;28;20031;-58
2023/10/08 11:45:50;;;;;;;13.55;4.70;;;;;;;;;;5107939;28;20039;-58
2023/10/08 11:48:21;;;;;;;17.08;4.28;;;;;;;;;;5109616;28;20040;-58
2023/10/08 11:50:50;;;;;;;12.60;4.32;;;;;;;;;;5107275;28;20040;-58
2023/10/08 11:53:19;;;;;;;21.50;4.25;;;;;;;;;;5106448;28;20526;-58
2023/10/08 11:55:47;;;;;;;18.60;4.40;;;;;;;;;;5106355;28;20027;-58
2023/10/08 11:58:23;;;;;;;16.80;3.90;;;;;;;;;;5109471;28;20059;-58
2023/10/08 12:00:52;;;;;;;17.90;4.10;;;;;;;;;;5106238;28;20494;-57
2023/10/08 12:03:18;;;;;;;20.42;4.13;;;;;;;;;;5104660;28;20062;-57
2023/10/08 12:05:48;;;;;;;16.98;4.03;;;;;;;;;;5104722;28;20071;-57
2023/10/08 12:08:16;;;;;;;15.50;4.07;;;;;;;;;;5087882;28;20491;-57
2023/10/08 12:10:46;;;;;;;18.00;4.07;;;;;;;;;;5107024;28;20106;-57
2023/10/08 12:13:12;;;;;;;17.85;4.63;;;;;;;;;;5106546;28;20426;-57
2023/10/08 12:15:39;;;;;;;17.77;4.38;;;;;;;;;;5103575;28;20043;-57
2023/10/08 12:20:38;;;;;;;15.25;4.55;;;;;;;;;;5108891;28;20479;-58
2023/10/08 12:23:05;;;;;;;16.52;3.95;;;;;;;;;;5108691;28;20040;-58
2023/10/08 12:25:32;;;;;;;19.38;4.40;;;;;;;;;;5108413;28;20031;-60
2023/10/08 12:28:04;;;;;;;27.45;4.53;;;;;;;;;;5107475;28;20406;-58
2023/10/08 12:30:41;;;;;;;13.38;3.95;;;;;;;;;;5105907;28;20065;-59
2023/10/08 12:33:09;;;;;;;16.67;4.15;;;;;;;;;;5107526;28;20036;-59
2023/10/08 12:35:37;;;;;;;16.90;4.00;;;;;;;;;;5106811;28;20031;-59
2023/10/08 12:38:05;;;;;;;13.30;3.60;;;;;;;;;;5106598;28;20051;-60
2023/10/08 12:43:19;;;;;;;14.43;4.72;;;;;;;;;;5105570;28;20051;-59
2023/10/08 12:45:56;;;;;;;19.00;4.38;;;;;;;;;;5108693;28;20032;-59
2023/10/08 12:48:27;;;;;;;20.45;4.45;;;;;;;;;;5107044;28;20035;-60
2023/10/08 12:50:56;;;;;;;16.70;4.38;;;;;;;;;;5105119;28;20040;-59
2023/10/08 12:53:26;;;;;;;14.40;4.35;;;;;;;;;;5107096;28;20035;-59
2023/10/08 12:55:54;;;;;;;22.48;4.30;;;;;;;;;;5107844;28;20023;-59
2023/10/08 12:58:25;;;;;;;15.75;4.10;;;;;;;;;;5089667;28;20040;-60
2023/10/08 13:00:57;;;;;;;21.33;4.32;;;;;;;;;;5085524;28;20031;-60
2023/10/08 13:03:32;;;;;;;15.65;3.92;;;;;;;;;;5087458;28;20032;-59
2023/10/08 13:06:05;;;;;;;16.38;3.95;;;;;;;;;;5104991;28;20042;-59
2023/10/08 13:08:33;;;;;;;17.65;4.30;;;;;;;;;;5102770;28;20046;-59
2023/10/08 13:11:00;;;;;;;25.60;4.95;;;;;;;;;;5102675;28;20051;-59
2023/10/08 13:13:27;;;;;;;18.48;3.92;;;;;;;;;;5103566;28;20410;-59
2023/10/08 13:15:56;;;;;;;13.00;4.07;;;;;;;;;;5109051;28;20407;-60
2023/10/08 13:18:25;;;;;;;;;;;;;;;;;;5108740;28;20043;-60
2023/10/08 13:20:52;;;;;;;23.75;4.75;;;;;;;;;;5107965;28;19916;-59
2023/10/08 13:23:23;;;;;;;17.60;4.72;;;;;;;;;;5107612;28;20047;-59
2023/10/08 13:25:54;;;;;;;20.90;4.55;;;;;;;;;;5106478;28;20039;-60
2023/10/08 13:28:22;;;;;;;17.90;4.00;;;;;;;;;;5110826;28;20039;-60
2023/10/08 13:30:52;;;;;;;18.38;4.82;;;;;;;;;;5104860;28;20047;-60
2023/10/08 13:33:19;;;;;;;18.23;4.35;;;;;;;;;;5103683;28;20415;-59
2023/10/08 13:35:46;;;;;;;15.40;4.10;;;;;;;;;;5106461;28;20054;-59
2023/10/08 13:38:13;;;;;;;19.80;4.55;;;;;;;;;;5103077;28;20036;-59
2023/10/08 13:40:43;;;;;;;29.33;4.80;;;;;;;;;;5094189;28;20031;-59
2023/10/08 13:43:11;;;;;;;20.80;3.90;;;;;;;;;;5109235;28;20035;-59
2023/10/08 13:45:39;;;;;;;23.20;4.15;;;;;;;;;;5110228;28;20032;-59
2023/10/08 13:48:06;;;;;;;21.88;5.13;;;;;;;;;;5111593;28;20028;-59
2023/10/08 13:50:32;;;;;;;24.73;4.40;;;;;;;;;;5110326;28;20050;-60
2023/10/08 13:53:01;;;;;;;18.45;4.03;;;;;;;;;;5110749;28;20066;-59
2023/10/08 13:55:29;;;;;;;21.38;4.25;;;;;;;;;;5092897;28;20031;-59
2023/10/08 13:57:57;;;;;;;19.23;4.32;;;;;;;;;;5109485;28;20499;-59
2023/10/08 14:00:26;;;;;;;20.50;4.60;;;;;;;;;;5109632;28;20035;-59
2023/10/08 14:02:52;;;;;;;19.38;4.35;;;;;;;;;;5108456;28;20093;-59
2023/10/08 14:05:23;;;;;;;21.60;5.00;;;;;;;;;;5107130;28;20055;-59
2023/10/08 14:07:52;;;;;;;23.02;4.65;;;;;;;;;;5107556;28;20032;-59
2023/10/08 14:10:19;;;;;;;20.15;4.45;;;;;;;;;;5107733;28;20027;-58
2023/10/08 14:12:48;;;;;;;21.75;4.65;;;;;;;;;;5108812;28;20039;-59
2023/10/08 14:15:18;;;;;;;20.40;4.60;;;;;;;;;;5107244;28;20546;-59
2023/10/08 14:17:53;;;;;;;17.58;4.20;;;;;;;;;;5091584;28;20059;-59
2023/10/08 14:20:22;;;;;;;19.08;4.80;;;;;;;;;;5110231;28;20035;-59
2023/10/08 14:22:57;;;;;;;25.25;5.07;;;;;;;;;;5110881;28;20032;-59
2023/10/08 14:25:27;;;;;;;18.80;4.43;;;;;;;;;;5106988;28;20064;-60
2023/10/08 14:27:54;;;;;;;22.23;4.63;;;;;;;;;;5109566;28;20032;-59
2023/10/08 14:30:24;;;;;;;21.35;3.97;;;;;;;;;;5108149;28;20537;-58
2023/10/08 14:32:50;;;;;;;25.30;4.63;;;;;;;;;;5107703;28;20062;-59
2023/10/08 14:43:34;;;;;;;22.40;4.00;;;;;;;;;;5109834;28;20043;-59
2023/10/08 14:46:04;;;;;;;;;;;;;;;;;;5110462;28;20035;-59
2023/10/08 14:48:34;;;;;;;26.60;4.88;;;;;;;;;;5110529;28;19911;-59
2023/10/08 14:51:02;;;;;;;26.05;4.63;;;;;;;;;;5107657;28;20032;-60
2023/10/08 14:53:31;;;;;;;29.75;7.32;;;;;;;;;;5108875;28;20039;-59
2023/10/08 14:55:57;;;;;;;24.08;5.55;;;;;;;;;;5109798;28;20028;-59
2023/10/08 14:58:25;;;;;;;23.50;4.20;;;;;;;;;;5108557;28;20030;-59
2023/10/08 15:00:54;;;;;;;28.15;4.93;;;;;;;;;;5105124;28;20048;-59
2023/10/08 15:03:20;;;;;;;23.20;4.40;;;;;;;;;;5107522;28;20043;-60
2023/10/08 15:05:47;;;;;;;22.67;4.80;;;;;;;;;;5108255;28;20379;-59
2023/10/08 15:08:14;;;;;;;20.38;4.60;;;;;;;;;;5107623;28;20027;-59
2023/10/08 15:10:40;;;;;;;21.73;4.82;;;;;;;;;;5106699;28;20058;-59
2023/10/08 15:13:07;;;;;;;18.35;5.50;;;;;;;;;;5111193;28;20043;-59
2023/10/08 15:15:39;;;;;;;22.98;5.15;;;;;;;;;;5108643;28;20439;-59
2023/10/08 15:18:06;;;;;;;18.65;5.05;;;;;;;;;;5108010;28;20552;-59
2023/10/08 15:20:33;;;;;;;16.60;4.75;;;;;;;;;;5107961;28;20036;-59
2023/10/08 15:23:00;;;;;;;18.75;4.78;;;;;;;;;;5109355;28;20039;-59
2023/10/08 15:25:26;;;;;;;21.17;4.90;;;;;;;;;;5107163;28;20040;-60
2023/10/08 15:27:52;;;;;;;19.60;4.90;;;;;;;;;;5108497;28;20035;-59
2023/10/08 15:30:20;;;;;;;20.55;5.22;;;;;;;;;;5104237;28;20035;-59
2023/10/08 15:32:47;;;;;;;17.25;5.30;;;;;;;;;;5107216;28;20031;-59
2023/10/08 15:35:19;;;;;;;22.02;5.07;;;;;;;;;;5106237;28;20054;-58
2023/10/08 15:37:47;;;;;;;13.45;4.35;;;;;;;;;;5105214;28;20035;-59
2023/10/08 15:40:19;;;;;;;18.25;4.65;;;;;;;;;;5107706;28;20023;-59
2023/10/08 15:42:53;;;;;;;15.85;5.47;;;;;;;;;;5106299;28;20502;-59
2023/10/08 15:45:20;;;;;;;18.00;4.70;;;;;;;;;;5109099;28;20044;-59
2023/10/08 15:47:48;;;;;;;17.45;5.35;;;;;;;;;;5104799;28;20070;-59
2023/10/08 15:50:15;;;;;;;16.90;5.57;;;;;;;;;;5108111;28;20036;-59
2023/10/08 15:52:41;;;;;;;15.10;5.10;;;;;;;;;;5109774;28;20497;-59
2023/10/08 15:55:08;;;;;;;13.98;5.05;;;;;;;;;;5084089;28;20046;-60
2023/10/08 15:57:34;;;;;;;14.15;4.70;;;;;;;;;;5105393;28;20040;-59
2023/10/08 16:00:01;;;;;;;14.90;4.55;;;;;;;;;;5103668;28;20036;-59
2023/10/08 16:02:30;;;;;;;14.20;5.35;;;;;;;;;;5105566;28;20430;-59
2023/10/08 16:04:56;;;;;;;14.27;4.75;;;;;;;;;;5106252;28;20030;-59
2023/10/08 16:07:23;;;;;;;13.95;5.15;;;;;;;;;;5105989;28;20237;-59
2023/10/08 16:09:49;;;;;;;18.48;5.95;;;;;;;;;;5069695;28;20103;-59
2023/10/08 16:12:15;;;;;;;14.98;4.97;;;;;;;;;;5109123;28;20023;-59
2023/10/08 16:14:41;;;;;;;16.70;4.50;;;;;;;;;;5108590;28;20027;-60
2023/10/08 16:17:09;;;;;;;14.80;5.18;;;;;;;;;;5106161;28;20031;-59
2023/10/08 16:19:37;;;;;;;15.88;5.22;;;;;;;;;;5107440;28;20034;-60
2023/10/08 16:22:03;;;;;;;12.70;4.57;;;;;;;;;;5107589;28;20031;-59
2023/10/08 16:24:36;;;;;;;18.77;5.35;;;;;;;;;;5051607;28;20410;-56